sensor_id;sensor_type;location;lat;lon;timestamp;P1;durP1;ratioP1;P2;durP2;ratioP2
5762;SDS011;2906;53.282;9.508;2023-03-01T00:00:29;14.48;;;4.45;;
5762;SDS011;2906;53.282;9.508;2023-03-01T00:01:31;15.75;;;4.88;;
5762;SDS011;2906;53.282;9.508;2023-03-01T00:02:33;14.23;;;4.70;;
5762;SDS011;2906;53.282;9.508;2023-03-01T00:03:39;14.50;;;5.07;;
5762;SDS011;2906;53.282;9.508;2023-03-01T00:04:40;12.15;;;4.05;;
5762;SDS011;2906;53.282;9.508;2023-03-01T00:05:44;19.23;;;5.07;;
5762;SDS011;2906;53.282;9.508;2023-03-01T00:06:45;19.42;;;6.03;;
5762;SDS011;2906;53.282;9.508;2023-03-01T00:07:51;12.90;;;4.85;;
5762;SDS011;2906;53.282;9.508;2023-03-01T00:08:53;16.52;;;5.35;;
5762;SDS011;2906;53.282;9.508;2023-03-01T00:09:56;17.58;;;6.03;;
5762;SDS011;2906;53.282;9.508;2023-03-01T00:11:02;15.25;;;6.55;;
5762;SDS011;2906;53.282;9.508;2023-03-01T00:12:04;18.95;;;6.47;;
5762;SDS011;2906;53.282;9.508;2023-03-01T00:13:06;17.83;;;6.13;;
5762;SDS011;2906;53.282;9.508;2023-03-01T00:14:10;17.40;;;6.95;;
5762;SDS011;2906;53.282;9.508;2023-03-01T00:15:13;19.05;;;7.63;;
5762;SDS011;2906;53.282;9.508;2023-03-01T00:16:15;16.27;;;5.95;;
5762;SDS011;2906;53.282;9.508;2023-03-01T00:17:18;18.90;;;6.75;;
5762;SDS011;2906;53.282;9.508;2023-03-01T00:18:19;20.00;;;7.47;;
5762;SDS011;2906;53.282;9.508;2023-03-01T00:19:22;18.80;;;6.85;;
5762;SDS011;2906;53.282;9.508;2023-03-01T00:20:24;18.58;;;6.85;;
5762;SDS011;2906;53.282;9.508;2023-03-01T00:21:26;20.50;;;7.05;;
5762;SDS011;2906;53.282;9.508;2023-03-01T00:22:28;18.75;;;7.05;;
5762;SDS011;2906;53.282;9.508;2023-03-01T00:23:30;21.35;;;7.10;;
5762;SDS011;2906;53.282;9.508;2023-03-01T00:24:32;26.08;;;6.40;;
5762;SDS011;2906;53.282;9.508;2023-03-01T00:25:39;16.15;;;6.50;;
5762;SDS011;2906;53.282;9.508;2023-03-01T00:26:42;22.80;;;7.53;;
5762;SDS011;2906;53.282;9.508;2023-03-01T00:27:44;21.08;;;7.15;;
5762;SDS011;2906;53.282;9.508;2023-03-01T00:28:49;22.02;;;7.55;;
5762;SDS011;2906;53.282;9.508;2023-03-01T00:29:53;18.98;;;7.60;;
5762;SDS011;2906;53.282;9.508;2023-03-01T00:30:56;19.88;;;7.22;;
5762;SDS011;2906;53.282;9.508;2023-03-01T00:31:59;20.05;;;7.22;;
5762;SDS011;2906;53.282;9.508;2023-03-01T00:33:00;21.20;;;6.78;;
5762;SDS011;2906;53.282;9.508;2023-03-01T00:34:04;20.35;;;7.30;;
5762;SDS011;2906;53.282;9.508;2023-03-01T00:35:05;20.90;;;7.82;;
5762;SDS011;2906;53.282;9.508;2023-03-01T00:36:10;25.77;;;7.50;;
5762;SDS011;2906;53.282;9.508;2023-03-01T00:37:11;21.10;;;7.47;;
5762;SDS011;2906;53.282;9.508;2023-03-01T00:38:15;15.35;;;6.35;;
5762;SDS011;2906;53.282;9.508;2023-03-01T00:39:16;20.40;;;7.70;;
5762;SDS011;2906;53.282;9.508;2023-03-01T00:40:19;26.15;;;7.47;;
5762;SDS011;2906;53.282;9.508;2023-03-01T00:41:22;20.70;;;7.57;;
5762;SDS011;2906;53.282;9.508;2023-03-01T00:42:26;24.67;;;7.93;;
5762;SDS011;2906;53.282;9.508;2023-03-01T00:43:28;21.55;;;8.80;;
5762;SDS011;2906;53.282;9.508;2023-03-01T00:44:31;20.17;;;7.10;;
5762;SDS011;2906;53.282;9.508;2023-03-01T00:45:34;20.83;;;7.63;;
5762;SDS011;2906;53.282;9.508;2023-03-01T00:46:37;18.63;;;7.80;;
5762;SDS011;2906;53.282;9.508;2023-03-01T00:47:39;18.92;;;7.53;;
5762;SDS011;2906;53.282;9.508;2023-03-01T00:48:41;20.08;;;8.07;;
5762;SDS011;2906;53.282;9.508;2023-03-01T00:49:43;17.27;;;7.60;;
5762;SDS011;2906;53.282;9.508;2023-03-01T00:50:45;26.80;;;8.85;;
5762;SDS011;2906;53.282;9.508;2023-03-01T00:51:46;22.90;;;9.07;;
5762;SDS011;2906;53.282;9.508;2023-03-01T00:52:51;29.92;;;7.97;;
5762;SDS011;2906;53.282;9.508;2023-03-01T00:53:54;22.75;;;8.65;;
5762;SDS011;2906;53.282;9.508;2023-03-01T00:54:56;20.30;;;7.80;;
5762;SDS011;2906;53.282;9.508;2023-03-01T00:55:58;22.70;;;8.85;;
5762;SDS011;2906;53.282;9.508;2023-03-01T00:57:00;22.40;;;8.07;;
5762;SDS011;2906;53.282;9.508;2023-03-01T00:58:01;21.85;;;7.93;;
5762;SDS011;2906;53.282;9.508;2023-03-01T00:59:04;18.85;;;7.82;;
5762;SDS011;2906;53.282;9.508;2023-03-01T01:00:05;22.77;;;8.80;;
5762;SDS011;2906;53.282;9.508;2023-03-01T01:01:12;22.85;;;8.52;;
5762;SDS011;2906;53.282;9.508;2023-03-01T01:02:17;20.48;;;8.18;;
5762;SDS011;2906;53.282;9.508;2023-03-01T01:03:21;17.25;;;7.50;;
5762;SDS011;2906;53.282;9.508;2023-03-01T01:04:24;22.33;;;8.02;;
5762;SDS011;2906;53.282;9.508;2023-03-01T01:05:27;19.45;;;8.00;;
5762;SDS011;2906;53.282;9.508;2023-03-01T01:06:29;19.23;;;7.78;;
5762;SDS011;2906;53.282;9.508;2023-03-01T01:07:32;29.40;;;7.60;;
5762;SDS011;2906;53.282;9.508;2023-03-01T01:08:33;21.42;;;7.60;;
5762;SDS011;2906;53.282;9.508;2023-03-01T01:09:35;20.42;;;6.75;;
5762;SDS011;2906;53.282;9.508;2023-03-01T01:10:39;22.13;;;7.10;;
5762;SDS011;2906;53.282;9.508;2023-03-01T01:11:42;19.45;;;7.50;;
5762;SDS011;2906;53.282;9.508;2023-03-01T01:12:44;19.98;;;7.43;;
5762;SDS011;2906;53.282;9.508;2023-03-01T01:13:46;20.45;;;6.35;;
5762;SDS011;2906;53.282;9.508;2023-03-01T01:14:48;19.67;;;6.90;;
5762;SDS011;2906;53.282;9.508;2023-03-01T01:15:50;24.08;;;8.75;;
5762;SDS011;2906;53.282;9.508;2023-03-01T01:16:53;17.52;;;7.20;;
5762;SDS011;2906;53.282;9.508;2023-03-01T01:17:56;22.20;;;7.30;;
5762;SDS011;2906;53.282;9.508;2023-03-01T01:18:57;18.20;;;7.15;;
5762;SDS011;2906;53.282;9.508;2023-03-01T01:20:00;23.33;;;7.38;;
5762;SDS011;2906;53.282;9.508;2023-03-01T01:21:03;20.27;;;7.13;;
5762;SDS011;2906;53.282;9.508;2023-03-01T01:22:05;16.45;;;6.35;;
5762;SDS011;2906;53.282;9.508;2023-03-01T01:23:07;23.10;;;6.45;;
5762;SDS011;2906;53.282;9.508;2023-03-01T01:24:09;16.42;;;6.80;;
5762;SDS011;2906;53.282;9.508;2023-03-01T01:25:11;14.07;;;5.60;;
5762;SDS011;2906;53.282;9.508;2023-03-01T01:26:14;17.48;;;6.53;;
5762;SDS011;2906;53.282;9.508;2023-03-01T01:27:18;18.67;;;6.00;;
5762;SDS011;2906;53.282;9.508;2023-03-01T01:28:20;24.23;;;6.88;;
5762;SDS011;2906;53.282;9.508;2023-03-01T01:29:22;16.13;;;6.00;;
5762;SDS011;2906;53.282;9.508;2023-03-01T01:30:24;12.95;;;5.53;;
5762;SDS011;2906;53.282;9.508;2023-03-01T01:31:26;16.30;;;6.03;;
5762;SDS011;2906;53.282;9.508;2023-03-01T01:32:31;20.88;;;6.15;;
5762;SDS011;2906;53.282;9.508;2023-03-01T01:33:32;16.92;;;5.90;;
5762;SDS011;2906;53.282;9.508;2023-03-01T01:34:35;14.70;;;5.13;;
5762;SDS011;2906;53.282;9.508;2023-03-01T01:35:36;18.15;;;5.38;;
5762;SDS011;2906;53.282;9.508;2023-03-01T01:36:38;12.80;;;4.32;;
5762;SDS011;2906;53.282;9.508;2023-03-01T01:37:40;11.98;;;4.32;;
5762;SDS011;2906;53.282;9.508;2023-03-01T01:38:42;13.07;;;4.90;;
5762;SDS011;2906;53.282;9.508;2023-03-01T01:39:44;16.75;;;4.80;;
5762;SDS011;2906;53.282;9.508;2023-03-01T01:40:47;21.00;;;4.93;;
5762;SDS011;2906;53.282;9.508;2023-03-01T01:41:48;12.90;;;4.45;;
5762;SDS011;2906;53.282;9.508;2023-03-01T01:42:51;13.95;;;4.32;;
5762;SDS011;2906;53.282;9.508;2023-03-01T01:46:28;15.52;;;4.70;;
5762;SDS011;2906;53.282;9.508;2023-03-01T01:47:33;10.85;;;3.08;;
5762;SDS011;2906;53.282;9.508;2023-03-01T01:48:37;9.98;;;3.47;;
5762;SDS011;2906;53.282;9.508;2023-03-01T01:49:42;10.63;;;3.97;;
5762;SDS011;2906;53.282;9.508;2023-03-01T01:50:45;10.63;;;4.07;;
5762;SDS011;2906;53.282;9.508;2023-03-01T01:51:53;12.50;;;3.85;;
5762;SDS011;2906;53.282;9.508;2023-03-01T01:52:56;14.32;;;3.70;;
5762;SDS011;2906;53.282;9.508;2023-03-01T01:53:59;11.02;;;3.58;;
5762;SDS011;2906;53.282;9.508;2023-03-01T01:55:02;9.50;;;2.67;;
5762;SDS011;2906;53.282;9.508;2023-03-01T01:56:07;10.35;;;3.20;;
5762;SDS011;2906;53.282;9.508;2023-03-01T01:57:13;8.35;;;2.65;;
5762;SDS011;2906;53.282;9.508;2023-03-01T01:58:17;9.63;;;3.05;;
5762;SDS011;2906;53.282;9.508;2023-03-01T01:59:20;9.32;;;3.00;;
5762;SDS011;2906;53.282;9.508;2023-03-01T02:00:25;14.60;;;3.20;;
5762;SDS011;2906;53.282;9.508;2023-03-01T02:01:26;10.30;;;2.70;;
5762;SDS011;2906;53.282;9.508;2023-03-01T02:02:29;12.40;;;3.13;;
5762;SDS011;2906;53.282;9.508;2023-03-01T02:03:32;8.65;;;2.58;;
5762;SDS011;2906;53.282;9.508;2023-03-01T02:04:37;11.75;;;3.03;;
5762;SDS011;2906;53.282;9.508;2023-03-01T02:05:44;11.45;;;2.88;;
5762;SDS011;2906;53.282;9.508;2023-03-01T02:06:48;10.52;;;3.00;;
5762;SDS011;2906;53.282;9.508;2023-03-01T02:07:52;12.90;;;3.03;;
5762;SDS011;2906;53.282;9.508;2023-03-01T02:08:55;13.07;;;3.58;;
5762;SDS011;2906;53.282;9.508;2023-03-01T02:09:58;10.32;;;3.10;;
5762;SDS011;2906;53.282;9.508;2023-03-01T02:11:00;9.82;;;3.05;;
5762;SDS011;2906;53.282;9.508;2023-03-01T02:12:04;12.00;;;3.40;;
5762;SDS011;2906;53.282;9.508;2023-03-01T02:13:07;10.35;;;3.50;;
5762;SDS011;2906;53.282;9.508;2023-03-01T02:14:08;9.95;;;2.92;;
5762;SDS011;2906;53.282;9.508;2023-03-01T02:15:11;8.50;;;2.85;;
5762;SDS011;2906;53.282;9.508;2023-03-01T02:16:13;19.48;;;3.33;;
5762;SDS011;2906;53.282;9.508;2023-03-01T02:17:17;9.60;;;3.30;;
5762;SDS011;2906;53.282;9.508;2023-03-01T02:18:20;8.75;;;2.95;;
5762;SDS011;2906;53.282;9.508;2023-03-01T02:19:30;12.05;;;3.85;;
5762;SDS011;2906;53.282;9.508;2023-03-01T02:20:33;9.68;;;3.05;;
5762;SDS011;2906;53.282;9.508;2023-03-01T02:21:38;9.90;;;2.90;;
5762;SDS011;2906;53.282;9.508;2023-03-01T02:22:43;10.70;;;3.08;;
5762;SDS011;2906;53.282;9.508;2023-03-01T02:23:46;9.80;;;3.20;;
5762;SDS011;2906;53.282;9.508;2023-03-01T02:24:49;13.45;;;3.33;;
5762;SDS011;2906;53.282;9.508;2023-03-01T02:25:56;11.27;;;3.30;;
5762;SDS011;2906;53.282;9.508;2023-03-01T02:26:59;11.10;;;3.35;;
5762;SDS011;2906;53.282;9.508;2023-03-01T02:28:04;10.13;;;3.20;;
5762;SDS011;2906;53.282;9.508;2023-03-01T02:29:08;11.30;;;3.45;;
5762;SDS011;2906;53.282;9.508;2023-03-01T02:30:13;12.30;;;2.58;;
5762;SDS011;2906;53.282;9.508;2023-03-01T02:31:16;10.98;;;3.08;;
5762;SDS011;2906;53.282;9.508;2023-03-01T02:32:32;9.80;;;3.15;;
5762;SDS011;2906;53.282;9.508;2023-03-01T02:33:36;10.02;;;3.10;;
5762;SDS011;2906;53.282;9.508;2023-03-01T02:34:38;10.10;;;2.90;;
5762;SDS011;2906;53.282;9.508;2023-03-01T02:35:41;10.43;;;3.30;;
5762;SDS011;2906;53.282;9.508;2023-03-01T02:36:44;9.50;;;3.22;;
5762;SDS011;2906;53.282;9.508;2023-03-01T02:37:48;8.95;;;2.80;;
5762;SDS011;2906;53.282;9.508;2023-03-01T02:38:49;11.55;;;3.28;;
5762;SDS011;2906;53.282;9.508;2023-03-01T02:39:55;8.77;;;2.60;;
5762;SDS011;2906;53.282;9.508;2023-03-01T02:40:58;11.30;;;2.95;;
5762;SDS011;2906;53.282;9.508;2023-03-01T02:42:01;11.02;;;2.80;;
5762;SDS011;2906;53.282;9.508;2023-03-01T02:43:03;10.77;;;3.20;;
5762;SDS011;2906;53.282;9.508;2023-03-01T02:44:08;13.63;;;3.20;;
5762;SDS011;2906;53.282;9.508;2023-03-01T02:45:09;11.20;;;3.10;;
5762;SDS011;2906;53.282;9.508;2023-03-01T02:46:14;13.35;;;3.40;;
5762;SDS011;2906;53.282;9.508;2023-03-01T02:47:16;13.48;;;3.40;;
5762;SDS011;2906;53.282;9.508;2023-03-01T02:48:18;10.65;;;3.20;;
5762;SDS011;2906;53.282;9.508;2023-03-01T02:49:22;11.77;;;3.15;;
5762;SDS011;2906;53.282;9.508;2023-03-01T02:50:34;10.10;;;3.08;;
5762;SDS011;2906;53.282;9.508;2023-03-01T02:51:42;8.65;;;2.90;;
5762;SDS011;2906;53.282;9.508;2023-03-01T02:52:47;10.52;;;3.20;;
5762;SDS011;2906;53.282;9.508;2023-03-01T02:53:56;12.07;;;3.50;;
5762;SDS011;2906;53.282;9.508;2023-03-01T02:55:02;10.40;;;3.25;;
5762;SDS011;2906;53.282;9.508;2023-03-01T02:56:04;9.07;;;2.85;;
5762;SDS011;2906;53.282;9.508;2023-03-01T02:57:12;11.27;;;3.40;;
5762;SDS011;2906;53.282;9.508;2023-03-01T02:58:14;9.57;;;2.80;;
5762;SDS011;2906;53.282;9.508;2023-03-01T02:59:21;12.30;;;2.92;;
5762;SDS011;2906;53.282;9.508;2023-03-01T03:00:24;10.77;;;3.28;;
5762;SDS011;2906;53.282;9.508;2023-03-01T03:01:29;10.93;;;3.45;;
5762;SDS011;2906;53.282;9.508;2023-03-01T03:02:36;9.35;;;3.00;;
5762;SDS011;2906;53.282;9.508;2023-03-01T03:03:39;9.30;;;3.17;;
5762;SDS011;2906;53.282;9.508;2023-03-01T03:04:40;10.45;;;3.72;;
5762;SDS011;2906;53.282;9.508;2023-03-01T03:05:43;10.40;;;2.97;;
5762;SDS011;2906;53.282;9.508;2023-03-01T03:06:45;13.88;;;3.03;;
5762;SDS011;2906;53.282;9.508;2023-03-01T03:07:47;11.52;;;3.75;;
5762;SDS011;2906;53.282;9.508;2023-03-01T03:08:49;10.38;;;3.05;;
5762;SDS011;2906;53.282;9.508;2023-03-01T03:09:52;9.20;;;3.13;;
5762;SDS011;2906;53.282;9.508;2023-03-01T03:10:53;11.95;;;3.92;;
5762;SDS011;2906;53.282;9.508;2023-03-01T03:11:56;10.13;;;3.00;;
5762;SDS011;2906;53.282;9.508;2023-03-01T03:12:57;12.15;;;2.97;;
5762;SDS011;2906;53.282;9.508;2023-03-01T03:14:00;10.13;;;2.63;;
5762;SDS011;2906;53.282;9.508;2023-03-01T03:15:03;8.88;;;2.92;;
5762;SDS011;2906;53.282;9.508;2023-03-01T03:16:08;10.63;;;3.30;;
5762;SDS011;2906;53.282;9.508;2023-03-01T03:17:13;12.50;;;3.80;;
5762;SDS011;2906;53.282;9.508;2023-03-01T03:18:17;10.15;;;2.90;;
5762;SDS011;2906;53.282;9.508;2023-03-01T03:19:19;11.25;;;3.30;;
5762;SDS011;2906;53.282;9.508;2023-03-01T03:20:23;11.20;;;3.28;;
5762;SDS011;2906;53.282;9.508;2023-03-01T03:21:24;8.90;;;3.22;;
5762;SDS011;2906;53.282;9.508;2023-03-01T03:22:27;10.48;;;3.10;;
5762;SDS011;2906;53.282;9.508;2023-03-01T03:23:28;9.73;;;3.58;;
5762;SDS011;2906;53.282;9.508;2023-03-01T03:24:31;10.85;;;3.83;;
5762;SDS011;2906;53.282;9.508;2023-03-01T03:25:38;12.88;;;3.30;;
5762;SDS011;2906;53.282;9.508;2023-03-01T03:26:41;10.07;;;2.83;;
5762;SDS011;2906;53.282;9.508;2023-03-01T03:27:43;11.85;;;3.45;;
5762;SDS011;2906;53.282;9.508;2023-03-01T03:28:46;15.20;;;3.65;;
5762;SDS011;2906;53.282;9.508;2023-03-01T03:29:47;10.27;;;3.40;;
5762;SDS011;2906;53.282;9.508;2023-03-01T03:30:51;15.07;;;3.50;;
5762;SDS011;2906;53.282;9.508;2023-03-01T03:31:53;9.57;;;3.17;;
5762;SDS011;2906;53.282;9.508;2023-03-01T03:32:56;9.88;;;3.15;;
5762;SDS011;2906;53.282;9.508;2023-03-01T03:33:57;11.00;;;2.95;;
5762;SDS011;2906;53.282;9.508;2023-03-01T03:35:00;11.07;;;3.20;;
5762;SDS011;2906;53.282;9.508;2023-03-01T03:36:02;11.70;;;3.45;;
5762;SDS011;2906;53.282;9.508;2023-03-01T03:37:04;11.10;;;3.58;;
5762;SDS011;2906;53.282;9.508;2023-03-01T03:38:25;9.65;;;3.15;;
5762;SDS011;2906;53.282;9.508;2023-03-01T03:39:28;10.48;;;3.08;;
5762;SDS011;2906;53.282;9.508;2023-03-01T03:40:35;11.85;;;4.07;;
5762;SDS011;2906;53.282;9.508;2023-03-01T03:41:38;15.70;;;5.63;;
5762;SDS011;2906;53.282;9.508;2023-03-01T03:42:39;16.75;;;5.55;;
5762;SDS011;2906;53.282;9.508;2023-03-01T03:43:44;20.05;;;6.43;;
5762;SDS011;2906;53.282;9.508;2023-03-01T03:44:45;16.40;;;5.95;;
5762;SDS011;2906;53.282;9.508;2023-03-01T03:45:50;13.80;;;5.25;;
5762;SDS011;2906;53.282;9.508;2023-03-01T03:46:52;15.38;;;5.30;;
5762;SDS011;2906;53.282;9.508;2023-03-01T03:47:54;15.30;;;4.93;;
5762;SDS011;2906;53.282;9.508;2023-03-01T03:48:56;15.50;;;5.65;;
5762;SDS011;2906;53.282;9.508;2023-03-01T03:49:58;12.57;;;4.38;;
5762;SDS011;2906;53.282;9.508;2023-03-01T03:51:00;14.98;;;4.32;;
5762;SDS011;2906;53.282;9.508;2023-03-01T03:52:05;11.25;;;3.83;;
5762;SDS011;2906;53.282;9.508;2023-03-01T03:53:13;10.00;;;3.22;;
5762;SDS011;2906;53.282;9.508;2023-03-01T03:54:16;11.52;;;3.58;;
5762;SDS011;2906;53.282;9.508;2023-03-01T03:55:18;12.55;;;3.38;;
5762;SDS011;2906;53.282;9.508;2023-03-01T03:56:20;10.65;;;3.65;;
5762;SDS011;2906;53.282;9.508;2023-03-01T03:57:26;11.20;;;3.88;;
5762;SDS011;2906;53.282;9.508;2023-03-01T03:58:27;11.02;;;3.90;;
5762;SDS011;2906;53.282;9.508;2023-03-01T03:59:43;10.57;;;3.55;;
5762;SDS011;2906;53.282;9.508;2023-03-01T04:00:46;9.30;;;3.40;;
5762;SDS011;2906;53.282;9.508;2023-03-01T04:01:50;10.82;;;3.72;;
5762;SDS011;2906;53.282;9.508;2023-03-01T04:02:51;10.23;;;3.20;;
5762;SDS011;2906;53.282;9.508;2023-03-01T04:03:56;14.40;;;4.05;;
5762;SDS011;2906;53.282;9.508;2023-03-01T04:05:03;12.25;;;3.50;;
5762;SDS011;2906;53.282;9.508;2023-03-01T04:06:06;10.90;;;3.72;;
5762;SDS011;2906;53.282;9.508;2023-03-01T04:07:07;10.73;;;3.60;;
5762;SDS011;2906;53.282;9.508;2023-03-01T04:08:10;10.60;;;3.40;;
5762;SDS011;2906;53.282;9.508;2023-03-01T04:09:11;11.95;;;4.00;;
5762;SDS011;2906;53.282;9.508;2023-03-01T04:10:14;11.10;;;4.10;;
5762;SDS011;2906;53.282;9.508;2023-03-01T04:11:15;11.95;;;3.80;;
5762;SDS011;2906;53.282;9.508;2023-03-01T04:12:31;11.18;;;4.25;;
5762;SDS011;2906;53.282;9.508;2023-03-01T04:13:34;11.35;;;3.97;;
5762;SDS011;2906;53.282;9.508;2023-03-01T04:14:37;10.85;;;3.97;;
5762;SDS011;2906;53.282;9.508;2023-03-01T04:15:39;9.80;;;3.50;;
5762;SDS011;2906;53.282;9.508;2023-03-01T04:16:43;11.55;;;3.55;;
5762;SDS011;2906;53.282;9.508;2023-03-01T04:17:46;11.10;;;3.80;;
5762;SDS011;2906;53.282;9.508;2023-03-01T04:18:50;13.45;;;4.20;;
5762;SDS011;2906;53.282;9.508;2023-03-01T04:19:53;12.20;;;3.75;;
5762;SDS011;2906;53.282;9.508;2023-03-01T04:20:55;14.68;;;3.75;;
5762;SDS011;2906;53.282;9.508;2023-03-01T04:21:57;11.80;;;4.25;;
5762;SDS011;2906;53.282;9.508;2023-03-01T04:23:00;16.00;;;4.20;;
5762;SDS011;2906;53.282;9.508;2023-03-01T04:24:10;13.27;;;4.40;;
5762;SDS011;2906;53.282;9.508;2023-03-01T04:25:13;11.75;;;3.90;;
5762;SDS011;2906;53.282;9.508;2023-03-01T04:26:14;10.98;;;3.83;;
5762;SDS011;2906;53.282;9.508;2023-03-01T04:27:17;10.40;;;3.80;;
5762;SDS011;2906;53.282;9.508;2023-03-01T04:28:19;13.48;;;4.95;;
5762;SDS011;2906;53.282;9.508;2023-03-01T04:29:21;15.85;;;5.55;;
5762;SDS011;2906;53.282;9.508;2023-03-01T04:30:23;13.32;;;4.32;;
5762;SDS011;2906;53.282;9.508;2023-03-01T04:31:26;13.25;;;4.50;;
5762;SDS011;2906;53.282;9.508;2023-03-01T04:32:28;13.60;;;5.00;;
5762;SDS011;2906;53.282;9.508;2023-03-01T04:33:32;14.73;;;4.20;;
5762;SDS011;2906;53.282;9.508;2023-03-01T04:34:33;11.38;;;4.57;;
5762;SDS011;2906;53.282;9.508;2023-03-01T04:35:35;12.68;;;4.25;;
5762;SDS011;2906;53.282;9.508;2023-03-01T04:36:37;13.98;;;4.45;;
5762;SDS011;2906;53.282;9.508;2023-03-01T04:37:40;14.90;;;4.93;;
5762;SDS011;2906;53.282;9.508;2023-03-01T04:38:51;12.57;;;4.65;;
5762;SDS011;2906;53.282;9.508;2023-03-01T04:39:53;13.10;;;4.80;;
5762;SDS011;2906;53.282;9.508;2023-03-01T04:40:54;12.77;;;4.45;;
5762;SDS011;2906;53.282;9.508;2023-03-01T04:41:58;12.25;;;4.10;;
5762;SDS011;2906;53.282;9.508;2023-03-01T04:43:00;13.60;;;4.50;;
5762;SDS011;2906;53.282;9.508;2023-03-01T04:44:02;15.27;;;4.75;;
5762;SDS011;2906;53.282;9.508;2023-03-01T04:45:04;12.00;;;4.50;;
5762;SDS011;2906;53.282;9.508;2023-03-01T04:46:13;12.63;;;4.60;;
5762;SDS011;2906;53.282;9.508;2023-03-01T04:47:16;13.48;;;5.03;;
5762;SDS011;2906;53.282;9.508;2023-03-01T04:48:18;13.90;;;4.55;;
5762;SDS011;2906;53.282;9.508;2023-03-01T04:49:22;13.60;;;5.03;;
5762;SDS011;2906;53.282;9.508;2023-03-01T04:50:24;12.30;;;5.15;;
5762;SDS011;2906;53.282;9.508;2023-03-01T04:51:27;12.63;;;4.93;;
5762;SDS011;2906;53.282;9.508;2023-03-01T04:52:28;14.27;;;4.45;;
5762;SDS011;2906;53.282;9.508;2023-03-01T04:53:31;13.27;;;4.45;;
5762;SDS011;2906;53.282;9.508;2023-03-01T04:54:36;13.85;;;4.95;;
5762;SDS011;2906;53.282;9.508;2023-03-01T04:55:37;13.50;;;5.00;;
5762;SDS011;2906;53.282;9.508;2023-03-01T04:56:40;14.13;;;5.65;;
5762;SDS011;2906;53.282;9.508;2023-03-01T04:57:41;15.68;;;5.70;;
5762;SDS011;2906;53.282;9.508;2023-03-01T04:58:43;13.95;;;4.80;;
5762;SDS011;2906;53.282;9.508;2023-03-01T04:59:46;15.73;;;4.72;;
5762;SDS011;2906;53.282;9.508;2023-03-01T05:00:51;12.02;;;4.72;;
5762;SDS011;2906;53.282;9.508;2023-03-01T05:01:53;11.25;;;4.53;;
5762;SDS011;2906;53.282;9.508;2023-03-01T05:02:57;12.43;;;4.50;;
5762;SDS011;2906;53.282;9.508;2023-03-01T05:04:00;14.05;;;4.50;;
5762;SDS011;2906;53.282;9.508;2023-03-01T05:05:04;12.43;;;4.70;;
5762;SDS011;2906;53.282;9.508;2023-03-01T05:06:06;12.15;;;4.78;;
5762;SDS011;2906;53.282;9.508;2023-03-01T05:07:08;14.75;;;4.35;;
5762;SDS011;2906;53.282;9.508;2023-03-01T05:08:10;13.80;;;4.85;;
5762;SDS011;2906;53.282;9.508;2023-03-01T05:09:17;11.55;;;4.32;;
5762;SDS011;2906;53.282;9.508;2023-03-01T05:10:20;13.45;;;4.45;;
5762;SDS011;2906;53.282;9.508;2023-03-01T05:11:23;14.93;;;4.78;;
5762;SDS011;2906;53.282;9.508;2023-03-01T05:12:32;13.98;;;4.50;;
5762;SDS011;2906;53.282;9.508;2023-03-01T05:13:35;14.27;;;4.57;;
5762;SDS011;2906;53.282;9.508;2023-03-01T05:14:38;12.80;;;5.03;;
5762;SDS011;2906;53.282;9.508;2023-03-01T05:15:40;13.43;;;4.70;;
5762;SDS011;2906;53.282;9.508;2023-03-01T05:16:42;12.27;;;4.40;;
5762;SDS011;2906;53.282;9.508;2023-03-01T05:17:46;14.23;;;4.90;;
5762;SDS011;2906;53.282;9.508;2023-03-01T05:18:47;13.70;;;4.45;;
5762;SDS011;2906;53.282;9.508;2023-03-01T05:19:51;16.40;;;5.03;;
5762;SDS011;2906;53.282;9.508;2023-03-01T05:20:54;12.82;;;4.88;;
5762;SDS011;2906;53.282;9.508;2023-03-01T05:21:58;14.70;;;4.65;;
5762;SDS011;2906;53.282;9.508;2023-03-01T05:23:04;13.30;;;4.25;;
5762;SDS011;2906;53.282;9.508;2023-03-01T05:24:07;10.00;;;3.95;;
5762;SDS011;2906;53.282;9.508;2023-03-01T05:25:11;14.75;;;4.80;;
5762;SDS011;2906;53.282;9.508;2023-03-01T05:26:15;18.23;;;4.85;;
5762;SDS011;2906;53.282;9.508;2023-03-01T05:27:17;13.93;;;4.35;;
5762;SDS011;2906;53.282;9.508;2023-03-01T05:28:22;13.48;;;4.60;;
5762;SDS011;2906;53.282;9.508;2023-03-01T05:29:23;14.38;;;4.53;;
5762;SDS011;2906;53.282;9.508;2023-03-01T05:30:26;12.00;;;4.60;;
5762;SDS011;2906;53.282;9.508;2023-03-01T05:31:27;11.63;;;4.25;;
5762;SDS011;2906;53.282;9.508;2023-03-01T05:32:30;14.18;;;4.60;;
5762;SDS011;2906;53.282;9.508;2023-03-01T05:33:32;15.57;;;4.75;;
5762;SDS011;2906;53.282;9.508;2023-03-01T05:34:35;13.35;;;5.00;;
5762;SDS011;2906;53.282;9.508;2023-03-01T05:35:36;13.32;;;5.35;;
5762;SDS011;2906;53.282;9.508;2023-03-01T05:36:40;14.55;;;5.88;;
5762;SDS011;2906;53.282;9.508;2023-03-01T05:37:42;17.40;;;6.43;;
5762;SDS011;2906;53.282;9.508;2023-03-01T05:38:44;16.25;;;5.97;;
5762;SDS011;2906;53.282;9.508;2023-03-01T05:39:46;16.65;;;6.70;;
5762;SDS011;2906;53.282;9.508;2023-03-01T05:40:50;20.17;;;7.47;;
5762;SDS011;2906;53.282;9.508;2023-03-01T05:41:52;22.75;;;8.25;;
5762;SDS011;2906;53.282;9.508;2023-03-01T05:42:55;27.60;;;8.15;;
5762;SDS011;2906;53.282;9.508;2023-03-01T05:43:59;17.42;;;7.90;;
5762;SDS011;2906;53.282;9.508;2023-03-01T05:45:05;20.27;;;8.00;;
5762;SDS011;2906;53.282;9.508;2023-03-01T05:46:09;18.58;;;7.78;;
5762;SDS011;2906;53.282;9.508;2023-03-01T05:47:13;16.25;;;7.13;;
5762;SDS011;2906;53.282;9.508;2023-03-01T05:48:14;18.95;;;6.93;;
5762;SDS011;2906;53.282;9.508;2023-03-01T05:49:19;16.13;;;6.78;;
5762;SDS011;2906;53.282;9.508;2023-03-01T05:50:21;14.90;;;5.50;;
5762;SDS011;2906;53.282;9.508;2023-03-01T05:51:25;15.38;;;5.72;;
5762;SDS011;2906;53.282;9.508;2023-03-01T05:52:30;16.08;;;5.45;;
5762;SDS011;2906;53.282;9.508;2023-03-01T05:53:33;15.15;;;5.80;;
5762;SDS011;2906;53.282;9.508;2023-03-01T05:54:34;20.23;;;5.50;;
5762;SDS011;2906;53.282;9.508;2023-03-01T05:55:37;10.73;;;4.30;;
5762;SDS011;2906;53.282;9.508;2023-03-01T05:56:38;13.80;;;4.82;;
5762;SDS011;2906;53.282;9.508;2023-03-01T05:57:41;17.08;;;5.03;;
5762;SDS011;2906;53.282;9.508;2023-03-01T05:58:42;15.55;;;4.90;;
5762;SDS011;2906;53.282;9.508;2023-03-01T05:59:45;14.90;;;4.65;;
5762;SDS011;2906;53.282;9.508;2023-03-01T06:00:47;13.32;;;4.05;;
5762;SDS011;2906;53.282;9.508;2023-03-01T06:01:50;12.98;;;4.40;;
5762;SDS011;2906;53.282;9.508;2023-03-01T06:02:52;12.95;;;4.68;;
5762;SDS011;2906;53.282;9.508;2023-03-01T06:03:55;12.15;;;3.70;;
5762;SDS011;2906;53.282;9.508;2023-03-01T06:04:56;14.43;;;4.30;;
5762;SDS011;2906;53.282;9.508;2023-03-01T06:05:59;10.75;;;3.85;;
5762;SDS011;2906;53.282;9.508;2023-03-01T06:07:00;11.75;;;3.90;;
5762;SDS011;2906;53.282;9.508;2023-03-01T06:08:06;14.02;;;3.72;;
5762;SDS011;2906;53.282;9.508;2023-03-01T06:09:07;14.23;;;5.50;;
5762;SDS011;2906;53.282;9.508;2023-03-01T06:10:11;12.40;;;4.32;;
5762;SDS011;2906;53.282;9.508;2023-03-01T06:11:12;15.65;;;4.55;;
5762;SDS011;2906;53.282;9.508;2023-03-01T06:12:15;12.57;;;4.43;;
5762;SDS011;2906;53.282;9.508;2023-03-01T06:13:17;12.65;;;4.40;;
5762;SDS011;2906;53.282;9.508;2023-03-01T06:15:40;11.93;;;4.32;;
5762;SDS011;2906;53.282;9.508;2023-03-01T06:16:43;14.45;;;4.80;;
5762;SDS011;2906;53.282;9.508;2023-03-01T06:17:45;13.75;;;5.03;;
5762;SDS011;2906;53.282;9.508;2023-03-01T06:18:47;13.82;;;4.50;;
5762;SDS011;2906;53.282;9.508;2023-03-01T06:19:49;13.55;;;5.10;;
5762;SDS011;2906;53.282;9.508;2023-03-01T06:20:55;18.67;;;5.07;;
5762;SDS011;2906;53.282;9.508;2023-03-01T06:21:56;10.50;;;4.45;;
5762;SDS011;2906;53.282;9.508;2023-03-01T06:22:59;12.75;;;4.78;;
5762;SDS011;2906;53.282;9.508;2023-03-01T06:24:05;15.07;;;5.30;;
5762;SDS011;2906;53.282;9.508;2023-03-01T06:25:08;11.55;;;4.63;;
5762;SDS011;2906;53.282;9.508;2023-03-01T06:26:11;14.82;;;5.10;;
5762;SDS011;2906;53.282;9.508;2023-03-01T06:27:12;12.23;;;5.10;;
5762;SDS011;2906;53.282;9.508;2023-03-01T06:28:15;13.90;;;4.30;;
5762;SDS011;2906;53.282;9.508;2023-03-01T06:29:16;11.35;;;3.60;;
5762;SDS011;2906;53.282;9.508;2023-03-01T06:30:19;12.48;;;4.40;;
5762;SDS011;2906;53.282;9.508;2023-03-01T06:31:21;11.63;;;4.20;;